sensor_id;sensor_type;location;lat;lon;timestamp;temperature;humidity
12303;DHT22;6214;48.012;7.862;2022-08-14T00:01:44;26.10;53.50
12303;DHT22;6214;48.012;7.862;2022-08-14T00:04:22;26.10;53.50
12303;DHT22;6214;48.012;7.862;2022-08-14T00:07:07;26.10;53.50
12303;DHT22;6214;48.012;7.862;2022-08-14T00:09:35;26.10;53.50
12303;DHT22;6214;48.012;7.862;2022-08-14T00:12:23;26.10;53.40
12303;DHT22;6214;48.012;7.862;2022-08-14T00:15:01;26.20;53.90
12303;DHT22;6214;48.012;7.862;2022-08-14T00:17:29;26.20;54.00
12303;DHT22;6214;48.012;7.862;2022-08-14T00:20:13;26.20;54.50
12303;DHT22;6214;48.012;7.862;2022-08-14T00:22:49;26.00;54.60
12303;DHT22;6214;48.012;7.862;2022-08-14T00:25:24;25.80;54.80
12303;DHT22;6214;48.012;7.862;2022-08-14T00:28:10;25.80;55.50
12303;DHT22;6214;48.012;7.862;2022-08-14T00:30:43;25.60;56.10
12303;DHT22;6214;48.012;7.862;2022-08-14T00:33:11;25.50;56.90
12303;DHT22;6214;48.012;7.862;2022-08-14T00:35:43;25.30;57.30
12303;DHT22;6214;48.012;7.862;2022-08-14T00:38:30;25.30;58.00
12303;DHT22;6214;48.012;7.862;2022-08-14T00:40:57;25.00;57.90
12303;DHT22;6214;48.012;7.862;2022-08-14T00:43:24;24.80;58.50
12303;DHT22;6214;48.012;7.862;2022-08-14T00:46:02;24.80;59.40
12303;DHT22;6214;48.012;7.862;2022-08-14T00:48:34;24.50;59.70
12303;DHT22;6214;48.012;7.862;2022-08-14T00:51:07;24.50;60.00
12303;DHT22;6214;48.012;7.862;2022-08-14T00:53:36;24.50;60.80
12303;DHT22;6214;48.012;7.862;2022-08-14T00:56:05;24.50;61.40
12303;DHT22;6214;48.012;7.862;2022-08-14T00:58:35;24.20;62.50
12303;DHT22;6214;48.012;7.862;2022-08-14T01:01:11;24.10;62.50
12303;DHT22;6214;48.012;7.862;2022-08-14T01:03:43;23.90;64.00
12303;DHT22;6214;48.012;7.862;2022-08-14T01:06:12;23.70;65.50
12303;DHT22;6214;48.012;7.862;2022-08-14T01:08:44;23.50;67.20
12303;DHT22;6214;48.012;7.862;2022-08-14T01:11:26;23.50;69.30
12303;DHT22;6214;48.012;7.862;2022-08-14T01:14:01;23.40;69.80
12303;DHT22;6214;48.012;7.862;2022-08-14T01:16:48;23.40;70.40
12303;DHT22;6214;48.012;7.862;2022-08-14T01:19:19;23.30;72.90
12303;DHT22;6214;48.012;7.862;2022-08-14T01:22:08;23.20;73.80
12303;DHT22;6214;48.012;7.862;2022-08-14T01:24:40;23.10;75.70
12303;DHT22;6214;48.012;7.862;2022-08-14T01:27:16;22.90;77.60
12303;DHT22;6214;48.012;7.862;2022-08-14T01:29:50;22.90;79.00
12303;DHT22;6214;48.012;7.862;2022-08-14T01:32:31;22.80;81.70
12303;DHT22;6214;48.012;7.862;2022-08-14T01:35:04;22.50;84.50
12303;DHT22;6214;48.012;7.862;2022-08-14T01:37:53;22.50;86.20
12303;DHT22;6214;48.012;7.862;2022-08-14T01:40:26;22.40;87.80
12303;DHT22;6214;48.012;7.862;2022-08-14T01:43:11;22.20;90.30
12303;DHT22;6214;48.012;7.862;2022-08-14T01:45:48;22.10;91.30
12303;DHT22;6214;48.012;7.862;2022-08-14T01:48:33;22.10;92.10
12303;DHT22;6214;48.012;7.862;2022-08-14T01:51:05;22.00;93.00
12303;DHT22;6214;48.012;7.862;2022-08-14T01:53:48;21.90;93.80
12303;DHT22;6214;48.012;7.862;2022-08-14T01:56:22;21.80;94.60
12303;DHT22;6214;48.012;7.862;2022-08-14T01:59:08;21.70;96.00
12303;DHT22;6214;48.012;7.862;2022-08-14T02:01:45;21.80;95.90
12303;DHT22;6214;48.012;7.862;2022-08-14T02:04:35;21.70;97.30
12303;DHT22;6214;48.012;7.862;2022-08-14T02:07:21;21.60;97.40
12303;DHT22;6214;48.012;7.862;2022-08-14T02:10:10;21.50;98.30
12303;DHT22;6214;48.012;7.862;2022-08-14T02:12:41;21.40;98.80
12303;DHT22;6214;48.012;7.862;2022-08-14T02:15:09;21.30;99.20
12303;DHT22;6214;48.012;7.862;2022-08-14T02:17:37;21.30;99.80
12303;DHT22;6214;48.012;7.862;2022-08-14T02:20:05;21.10;99.90
12303;DHT22;6214;48.012;7.862;2022-08-14T02:22:34;21.10;99.90
12303;DHT22;6214;48.012;7.862;2022-08-14T02:25:13;21.30;99.90
12303;DHT22;6214;48.012;7.862;2022-08-14T02:27:42;21.00;99.90
12303;DHT22;6214;48.012;7.862;2022-08-14T02:30:30;21.10;99.90
12303;DHT22;6214;48.012;7.862;2022-08-14T02:32:59;20.90;99.90
12303;DHT22;6214;48.012;7.862;2022-08-14T02:35:27;21.00;99.90
12303;DHT22;6214;48.012;7.862;2022-08-14T02:37:59;20.90;99.90
12303;DHT22;6214;48.012;7.862;2022-08-14T02:40:31;20.80;99.90
12303;DHT22;6214;48.012;7.862;2022-08-14T02:43:01;21.10;99.90
12303;DHT22;6214;48.012;7.862;2022-08-14T02:45:32;21.20;99.90
12303;DHT22;6214;48.012;7.862;2022-08-14T02:48:11;21.30;99.90
12303;DHT22;6214;48.012;7.862;2022-08-14T02:50:59;21.40;99.90
12303;DHT22;6214;48.012;7.862;2022-08-14T02:53:30;21.40;99.90
12303;DHT22;6214;48.012;7.862;2022-08-14T02:56:00;21.40;99.90
12303;DHT22;6214;48.012;7.862;2022-08-14T02:58:38;21.40;99.90
12303;DHT22;6214;48.012;7.862;2022-08-14T03:01:09;21.20;99.90
12303;DHT22;6214;48.012;7.862;2022-08-14T03:03:36;21.20;99.90
12303;DHT22;6214;48.012;7.862;2022-08-14T03:06:05;21.10;99.90
12303;DHT22;6214;48.012;7.862;2022-08-14T03:08:36;21.00;99.90
12303;DHT22;6214;48.012;7.862;2022-08-14T03:11:06;21.00;99.90
12303;DHT22;6214;48.012;7.862;2022-08-14T03:13:37;20.90;99.90
12303;DHT22;6214;48.012;7.862;2022-08-14T03:16:07;20.90;99.90
12303;DHT22;6214;48.012;7.862;2022-08-14T03:18:47;21.00;99.90
12303;DHT22;6214;48.012;7.862;2022-08-14T03:21:20;20.80;99.90
12303;DHT22;6214;48.012;7.862;2022-08-14T03:23:49;20.80;99.90
12303;DHT22;6214;48.012;7.862;2022-08-14T03:26:19;20.60;99.90
12303;DHT22;6214;48.012;7.862;2022-08-14T03:28:56;20.70;99.90
12303;DHT22;6214;48.012;7.862;2022-08-14T03:31:27;20.70;99.90
12303;DHT22;6214;48.012;7.862;2022-08-14T03:33:56;20.50;99.90
12303;DHT22;6214;48.012;7.862;2022-08-14T03:36:27;20.60;99.90
12303;DHT22;6214;48.012;7.862;2022-08-14T03:39:18;20.40;99.90
12303;DHT22;6214;48.012;7.862;2022-08-14T03:41:55;20.50;99.90
12303;DHT22;6214;48.012;7.862;2022-08-14T03:44:27;20.50;99.90
12303;DHT22;6214;48.012;7.862;2022-08-14T03:47:14;20.30;99.90
12303;DHT22;6214;48.012;7.862;2022-08-14T03:49:42;20.30;99.90
12303;DHT22;6214;48.012;7.862;2022-08-14T03:52:12;20.30;99.90
12303;DHT22;6214;48.012;7.862;2022-08-14T03:54:58;20.30;99.90
12303;DHT22;6214;48.012;7.862;2022-08-14T03:57:26;20.10;99.90
12303;DHT22;6214;48.012;7.862;2022-08-14T04:00:10;20.00;99.90
12303;DHT22;6214;48.012;7.862;2022-08-14T04:02:59;20.00;99.90
12303;DHT22;6214;48.012;7.862;2022-08-14T04:05:27;20.00;99.90
12303;DHT22;6214;48.012;7.862;2022-08-14T04:08:06;20.00;99.90
12303;DHT22;6214;48.012;7.862;2022-08-14T04:10:54;20.00;99.90
12303;DHT22;6214;48.012;7.862;2022-08-14T04:13:22;20.10;99.90
12303;DHT22;6214;48.012;7.862;2022-08-14T04:15:49;20.00;99.90
12303;DHT22;6214;48.012;7.862;2022-08-14T04:18:27;20.20;99.90
12303;DHT22;6214;48.012;7.862;2022-08-14T04:20:56;20.40;99.90
12303;DHT22;6214;48.012;7.862;2022-08-14T04:23:25;20.20;99.90
12303;DHT22;6214;48.012;7.862;2022-08-14T04:26:05;20.10;99.90
12303;DHT22;6214;48.012;7.862;2022-08-14T04:28:41;20.00;99.90
12303;DHT22;6214;48.012;7.862;2022-08-14T04:31:28;19.90;99.90
12303;DHT22;6214;48.012;7.862;2022-08-14T04:34:16;20.00;99.90
12303;DHT22;6214;48.012;7.862;2022-08-14T04:36:52;19.90;99.90
12303;DHT22;6214;48.012;7.862;2022-08-14T04:39:38;20.00;99.90
12303;DHT22;6214;48.012;7.862;2022-08-14T04:42:25;20.10;99.90
12303;DHT22;6214;48.012;7.862;2022-08-14T04:45:20;19.90;99.90
12303;DHT22;6214;48.012;7.862;2022-08-14T04:47:50;19.80;99.90
12303;DHT22;6214;48.012;7.862;2022-08-14T04:50:50;19.70;99.90
12303;DHT22;6214;48.012;7.862;2022-08-14T04:53:25;19.70;99.90
12303;DHT22;6214;48.012;7.862;2022-08-14T04:56:02;19.60;99.90
12303;DHT22;6214;48.012;7.862;2022-08-14T04:58:51;19.80;99.90
12303;DHT22;6214;48.012;7.862;2022-08-14T05:01:21;19.90;99.90
12303;DHT22;6214;48.012;7.862;2022-08-14T05:03:50;19.80;99.90
12303;DHT22;6214;48.012;7.862;2022-08-14T05:06:17;19.80;99.90
12303;DHT22;6214;48.012;7.862;2022-08-14T05:09:05;19.90;99.90
12303;DHT22;6214;48.012;7.862;2022-08-14T05:11:32;19.80;99.90
12303;DHT22;6214;48.012;7.862;2022-08-14T05:14:03;19.90;99.90
12303;DHT22;6214;48.012;7.862;2022-08-14T05:16:50;19.90;99.90
12303;DHT22;6214;48.012;7.862;2022-08-14T05:19:18;19.70;99.90
12303;DHT22;6214;48.012;7.862;2022-08-14T05:21:53;19.70;99.90
12303;DHT22;6214;48.012;7.862;2022-08-14T05:24:45;19.60;99.90
12303;DHT22;6214;48.012;7.862;2022-08-14T05:27:17;19.60;99.90
12303;DHT22;6214;48.012;7.862;2022-08-14T05:29:53;19.70;99.90
12303;DHT22;6214;48.012;7.862;2022-08-14T05:32:24;19.60;99.90
12303;DHT22;6214;48.012;7.862;2022-08-14T05:34:55;19.70;99.90
12303;DHT22;6214;48.012;7.862;2022-08-14T05:37:24;19.50;99.90
12303;DHT22;6214;48.012;7.862;2022-08-14T05:39:53;19.60;99.90
12303;DHT22;6214;48.012;7.862;2022-08-14T05:42:21;19.80;99.90
12303;DHT22;6214;48.012;7.862;2022-08-14T05:44:58;19.80;99.90
12303;DHT22;6214;48.012;7.862;2022-08-14T05:47:25;19.90;99.90
12303;DHT22;6214;48.012;7.862;2022-08-14T05:49:59;19.70;99.90
12303;DHT22;6214;48.012;7.862;2022-08-14T05:52:27;19.70;99.90
12303;DHT22;6214;48.012;7.862;2022-08-14T05:55:09;19.80;99.90
12303;DHT22;6214;48.012;7.862;2022-08-14T05:57:53;20.00;99.90
12303;DHT22;6214;48.012;7.862;2022-08-14T06:00:27;20.20;99.90
12303;DHT22;6214;48.012;7.862;2022-08-14T06:03:04;20.40;99.90
12303;DHT22;6214;48.012;7.862;2022-08-14T06:05:33;20.60;99.90
12303;DHT22;6214;48.012;7.862;2022-08-14T06:08:04;20.90;99.90
12303;DHT22;6214;48.012;7.862;2022-08-14T06:10:49;21.30;99.90
12303;DHT22;6214;48.012;7.862;2022-08-14T06:13:17;21.40;99.90
12303;DHT22;6214;48.012;7.862;2022-08-14T06:15:45;21.50;99.90
12303;DHT22;6214;48.012;7.862;2022-08-14T06:18:14;21.60;99.90
12303;DHT22;6214;48.012;7.862;2022-08-14T06:20:43;21.70;99.90
12303;DHT22;6214;48.012;7.862;2022-08-14T06:23:11;22.00;99.90
12303;DHT22;6214;48.012;7.862;2022-08-14T06:25:40;22.30;99.90
12303;DHT22;6214;48.012;7.862;2022-08-14T06:28:07;22.40;99.90
12303;DHT22;6214;48.012;7.862;2022-08-14T06:30:53;22.70;99.90
12303;DHT22;6214;48.012;7.862;2022-08-14T06:33:21;22.80;99.90
12303;DHT22;6214;48.012;7.862;2022-08-14T06:35:48;22.80;99.90
12303;DHT22;6214;48.012;7.862;2022-08-14T06:38:21;23.00;99.90
12303;DHT22;6214;48.012;7.862;2022-08-14T06:40:50;23.30;99.90
12303;DHT22;6214;48.012;7.862;2022-08-14T06:43:19;23.50;99.90
12303;DHT22;6214;48.012;7.862;2022-08-14T06:45:48;23.60;99.90
12303;DHT22;6214;48.012;7.862;2022-08-14T06:48:24;23.80;99.90
12303;DHT22;6214;48.012;7.862;2022-08-14T06:50:54;24.20;99.90
12303;DHT22;6214;48.012;7.862;2022-08-14T06:53:23;24.50;99.90
12303;DHT22;6214;48.012;7.862;2022-08-14T06:55:54;25.00;99.50
12303;DHT22;6214;48.012;7.862;2022-08-14T06:58:27;25.20;98.80
12303;DHT22;6214;48.012;7.862;2022-08-14T07:00:58;25.50;98.40
12303;DHT22;6214;48.012;7.862;2022-08-14T07:03:54;25.90;97.80
12303;DHT22;6214;48.012;7.862;2022-08-14T07:06:51;26.70;95.40
12303;DHT22;6214;48.012;7.862;2022-08-14T07:09:26;27.50;93.10
12303;DHT22;6214;48.012;7.862;2022-08-14T07:11:54;28.10;92.60
12303;DHT22;6214;48.012;7.862;2022-08-14T07:14:22;28.90;90.00
12303;DHT22;6214;48.012;7.862;2022-08-14T07:16:48;30.40;83.50
12303;DHT22;6214;48.012;7.862;2022-08-14T07:19:17;32.30;73.20
12303;DHT22;6214;48.012;7.862;2022-08-14T07:21:46;33.60;65.70
12303;DHT22;6214;48.012;7.862;2022-08-14T07:24:13;35.10;59.80
12303;DHT22;6214;48.012;7.862;2022-08-14T07:26:48;36.30;55.10
12303;DHT22;6214;48.012;7.862;2022-08-14T07:29:15;37.30;51.70
12303;DHT22;6214;48.012;7.862;2022-08-14T07:31:48;37.80;50.40
12303;DHT22;6214;48.012;7.862;2022-08-14T07:34:15;38.90;49.00
12303;DHT22;6214;48.012;7.862;2022-08-14T07:37:02;40.00;47.10
12303;DHT22;6214;48.012;7.862;2022-08-14T07:39:29;40.10;44.40
12303;DHT22;6214;48.012;7.862;2022-08-14T07:42:00;40.50;44.00
12303;DHT22;6214;48.012;7.862;2022-08-14T07:44:27;41.30;43.70
12303;DHT22;6214;48.012;7.862;2022-08-14T07:47:12;41.60;42.00
12303;DHT22;6214;48.012;7.862;2022-08-14T07:49:51;42.00;41.10
12303;DHT22;6214;48.012;7.862;2022-08-14T07:52:21;42.20;40.70
12303;DHT22;6214;48.012;7.862;2022-08-14T07:54:56;42.80;39.70
12303;DHT22;6214;48.012;7.862;2022-08-14T07:57:23;42.20;38.90
12303;DHT22;6214;48.012;7.862;2022-08-14T07:59:50;42.10;38.60
12303;DHT22;6214;48.012;7.862;2022-08-14T08:02:17;41.60;38.70
12303;DHT22;6214;48.012;7.862;2022-08-14T08:04:51;41.90;38.90
12303;DHT22;6214;48.012;7.862;2022-08-14T08:07:26;40.70;39.00
12303;DHT22;6214;48.012;7.862;2022-08-14T08:09:58;40.70;39.80
12303;DHT22;6214;48.012;7.862;2022-08-14T08:12:27;41.00;39.40
12303;DHT22;6214;48.012;7.862;2022-08-14T08:14:59;41.40;39.20
12303;DHT22;6214;48.012;7.862;2022-08-14T08:17:35;41.40;38.70
12303;DHT22;6214;48.012;7.862;2022-08-14T08:20:14;41.30;38.50
12303;DHT22;6214;48.012;7.862;2022-08-14T08:22:47;40.70;38.60
12303;DHT22;6214;48.012;7.862;2022-08-14T08:25:23;40.70;38.90
12303;DHT22;6214;48.012;7.862;2022-08-14T08:27:55;41.20;39.80
12303;DHT22;6214;48.012;7.862;2022-08-14T08:30:22;41.50;38.90
12303;DHT22;6214;48.012;7.862;2022-08-14T08:32:51;41.70;38.40
12303;DHT22;6214;48.012;7.862;2022-08-14T08:35:20;41.50;39.00
12303;DHT22;6214;48.012;7.862;2022-08-14T08:37:49;42.20;39.10
12303;DHT22;6214;48.012;7.862;2022-08-14T08:40:30;42.90;38.00
12303;DHT22;6214;48.012;7.862;2022-08-14T08:45:42;42.20;37.80
12303;DHT22;6214;48.012;7.862;2022-08-14T08:48:11;41.20;39.10
12303;DHT22;6214;48.012;7.862;2022-08-14T08:50:59;40.90;39.20
12303;DHT22;6214;48.012;7.862;2022-08-14T08:53:32;40.70;39.10
12303;DHT22;6214;48.012;7.862;2022-08-14T08:55:59;41.30;38.70
12303;DHT22;6214;48.012;7.862;2022-08-14T08:58:27;41.30;38.90
12303;DHT22;6214;48.012;7.862;2022-08-14T09:00:56;41.90;39.30
12303;DHT22;6214;48.012;7.862;2022-08-14T09:03:26;42.70;38.60
12303;DHT22;6214;48.012;7.862;2022-08-14T09:05:57;42.90;37.80
12303;DHT22;6214;48.012;7.862;2022-08-14T09:08:26;43.70;37.90
12303;DHT22;6214;48.012;7.862;2022-08-14T09:11:06;44.10;36.60
12303;DHT22;6214;48.012;7.862;2022-08-14T09:13:48;43.00;36.00
12303;DHT22;6214;48.012;7.862;2022-08-14T09:16:22;42.60;37.80
12303;DHT22;6214;48.012;7.862;2022-08-14T09:18:52;42.90;37.50
12303;DHT22;6214;48.012;7.862;2022-08-14T09:21:20;43.00;37.30
12303;DHT22;6214;48.012;7.862;2022-08-14T09:23:52;43.60;37.20
12303;DHT22;6214;48.012;7.862;2022-08-14T09:26:41;44.10;36.50
12303;DHT22;6214;48.012;7.862;2022-08-14T09:29:10;43.70;35.30
12303;DHT22;6214;48.012;7.862;2022-08-14T09:31:43;43.40;35.00
12303;DHT22;6214;48.012;7.862;2022-08-14T09:37:18;42.80;34.70
12303;DHT22;6214;48.012;7.862;2022-08-14T09:47:54;40.40;37.50
12303;DHT22;6214;48.012;7.862;2022-08-14T09:50:31;40.40;37.30
12303;DHT22;6214;48.012;7.862;2022-08-14T09:53:02;40.80;37.40
12303;DHT22;6214;48.012;7.862;2022-08-14T09:55:32;41.20;37.10
12303;DHT22;6214;48.012;7.862;2022-08-14T09:58:09;41.10;36.70
12303;DHT22;6214;48.012;7.862;2022-08-14T10:00:49;40.30;39.20
12303;DHT22;6214;48.012;7.862;2022-08-14T10:03:32;40.10;38.10
12303;DHT22;6214;48.012;7.862;2022-08-14T10:08:44;38.00;38.70
12303;DHT22;6214;48.012;7.862;2022-08-14T10:13:51;36.10;41.40
12303;DHT22;6214;48.012;7.862;2022-08-14T10:16:26;35.40;41.40
12303;DHT22;6214;48.012;7.862;2022-08-14T10:19:11;35.00;42.00
12303;DHT22;6214;48.012;7.862;2022-08-14T10:22:05;34.30;42.80
12303;DHT22;6214;48.012;7.862;2022-08-14T10:24:56;33.90;43.60
12303;DHT22;6214;48.012;7.862;2022-08-14T10:27:26;33.60;44.40
12303;DHT22;6214;48.012;7.862;2022-08-14T10:29:55;33.20;43.80
12303;DHT22;6214;48.012;7.862;2022-08-14T10:32:26;32.90;44.00
12303;DHT22;6214;48.012;7.862;2022-08-14T10:35:09;32.90;44.00
12303;DHT22;6214;48.012;7.862;2022-08-14T10:37:50;32.70;44.50
12303;DHT22;6214;48.012;7.862;2022-08-14T10:40:26;32.90;44.70
12303;DHT22;6214;48.012;7.862;2022-08-14T10:43:18;32.60;44.30
12303;DHT22;6214;48.012;7.862;2022-08-14T10:48:41;32.30;45.50
12303;DHT22;6214;48.012;7.862;2022-08-14T10:51:11;32.50;46.00
12303;DHT22;6214;48.012;7.862;2022-08-14T10:53:54;32.60;45.30
12303;DHT22;6214;48.012;7.862;2022-08-14T10:56:30;32.50;46.30
12303;DHT22;6214;48.012;7.862;2022-08-14T10:59:02;32.30;46.40
12303;DHT22;6214;48.012;7.862;2022-08-14T11:01:34;32.50;46.70
12303;DHT22;6214;48.012;7.862;2022-08-14T11:04:19;32.30;45.30
12303;DHT22;6214;48.012;7.862;2022-08-14T11:06:54;32.30;45.50
12303;DHT22;6214;48.012;7.862;2022-08-14T11:09:22;32.30;45.50
12303;DHT22;6214;48.012;7.862;2022-08-14T11:11:55;32.30;44.90
12303;DHT22;6214;48.012;7.862;2022-08-14T11:14:55;32.40;45.40
12303;DHT22;6214;48.012;7.862;2022-08-14T11:17:30;32.60;45.90
12303;DHT22;6214;48.012;7.862;2022-08-14T11:19:59;32.70;45.50
12303;DHT22;6214;48.012;7.862;2022-08-14T11:22:28;32.80;44.60
12303;DHT22;6214;48.012;7.862;2022-08-14T11:25:17;32.80;44.60
12303;DHT22;6214;48.012;7.862;2022-08-14T11:27:48;32.70;45.00
12303;DHT22;6214;48.012;7.862;2022-08-14T11:30:19;32.50;45.20
12303;DHT22;6214;48.012;7.862;2022-08-14T11:33:06;32.50;45.80
12303;DHT22;6214;48.012;7.862;2022-08-14T11:35:35;32.50;46.20
12303;DHT22;6214;48.012;7.862;2022-08-14T11:38:14;32.30;47.00
12303;DHT22;6214;48.012;7.862;2022-08-14T11:40:43;32.30;48.30
12303;DHT22;6214;48.012;7.862;2022-08-14T11:43:13;32.30;48.20
12303;DHT22;6214;48.012;7.862;2022-08-14T11:45:44;32.30;48.60
12303;DHT22;6214;48.012;7.862;2022-08-14T11:51:14;32.60;51.10
12303;DHT22;6214;48.012;7.862;2022-08-14T11:54:00;32.60;51.80
12303;DHT22;6214;48.012;7.862;2022-08-14T11:56:38;32.50;53.70
12303;DHT22;6214;48.012;7.862;2022-08-14T11:59:13;32.50;54.90
12303;DHT22;6214;48.012;7.862;2022-08-14T12:01:40;32.50;55.40
12303;DHT22;6214;48.012;7.862;2022-08-14T12:04:25;32.50;56.40
12303;DHT22;6214;48.012;7.862;2022-08-14T12:06:59;32.70;57.00
12303;DHT22;6214;48.012;7.862;2022-08-14T12:09:32;32.80;57.00
12303;DHT22;6214;48.012;7.862;2022-08-14T12:12:11;32.90;57.70
12303;DHT22;6214;48.012;7.862;2022-08-14T12:14:51;32.70;57.90
12303;DHT22;6214;48.012;7.862;2022-08-14T12:17:23;32.50;58.80
12303;DHT22;6214;48.012;7.862;2022-08-14T12:19:59;32.20;60.20
12303;DHT22;6214;48.012;7.862;2022-08-14T12:22:38;32.00;61.30
12303;DHT22;6214;48.012;7.862;2022-08-14T12:25:11;31.90;62.30
12303;DHT22;6214;48.012;7.862;2022-08-14T12:27:41;31.80;64.20
12303;DHT22;6214;48.012;7.862;2022-08-14T12:33:05;31.90;65.50
12303;DHT22;6214;48.012;7.862;2022-08-14T12:35:41;32.10;66.30
12303;DHT22;6214;48.012;7.862;2022-08-14T12:38:10;32.00;65.70
12303;DHT22;6214;48.012;7.862;2022-08-14T12:40:49;32.00;65.50
12303;DHT22;6214;48.012;7.862;2022-08-14T12:43:18;32.00;65.50
12303;DHT22;6214;48.012;7.862;2022-08-14T12:45:52;32.20;66.20
12303;DHT22;6214;48.012;7.862;2022-08-14T12:48:23;32.10;65.40
12303;DHT22;6214;48.012;7.862;2022-08-14T12:50:58;32.10;66.30
12303;DHT22;6214;48.012;7.862;2022-08-14T12:53:35;32.10;66.80
12303;DHT22;6214;48.012;7.862;2022-08-14T12:56:05;31.90;67.00
12303;DHT22;6214;48.012;7.862;2022-08-14T12:58:56;31.80;67.50
12303;DHT22;6214;48.012;7.862;2022-08-14T13:01:26;31.90;68.30
12303;DHT22;6214;48.012;7.862;2022-08-14T13:06:46;32.00;68.10
12303;DHT22;6214;48.012;7.862;2022-08-14T13:09:19;32.20;68.00
12303;DHT22;6214;48.012;7.862;2022-08-14T13:11:51;32.20;67.80
12303;DHT22;6214;48.012;7.862;2022-08-14T13:14:40;32.30;66.30
12303;DHT22;6214;48.012;7.862;2022-08-14T13:17:09;32.20;65.60
12303;DHT22;6214;48.012;7.862;2022-08-14T13:19:38;32.10;64.10
12303;DHT22;6214;48.012;7.862;2022-08-14T13:22:07;32.00;59.80
12303;DHT22;6214;48.012;7.862;2022-08-14T13:24:45;31.80;58.70
12303;DHT22;6214;48.012;7.862;2022-08-14T13:27:13;31.70;57.80
12303;DHT22;6214;48.012;7.862;2022-08-14T13:29:44;31.60;57.40
12303;DHT22;6214;48.012;7.862;2022-08-14T13:32:13;31.50;56.20
12303;DHT22;6214;48.012;7.862;2022-08-14T13:34:42;31.40;56.40
12303;DHT22;6214;48.012;7.862;2022-08-14T13:37:16;31.40;55.90
12303;DHT22;6214;48.012;7.862;2022-08-14T13:39:48;31.40;55.40
12303;DHT22;6214;48.012;7.862;2022-08-14T13:42:25;31.30;55.30
12303;DHT22;6214;48.012;7.862;2022-08-14T13:44:59;31.20;55.30
12303;DHT22;6214;48.012;7.862;2022-08-14T13:47:28;31.20;55.30
12303;DHT22;6214;48.012;7.862;2022-08-14T13:49:58;31.10;55.30
12303;DHT22;6214;48.012;7.862;2022-08-14T13:55:21;31.10;55.70
12303;DHT22;6214;48.012;7.862;2022-08-14T13:57:49;31.20;56.20
12303;DHT22;6214;48.012;7.862;2022-08-14T14:00:32;31.20;56.70
12303;DHT22;6214;48.012;7.862;2022-08-14T14:03:03;31.00;55.50
12303;DHT22;6214;48.012;7.862;2022-08-14T14:05:36;30.70;56.00
12303;DHT22;6214;48.012;7.862;2022-08-14T14:08:23;30.70;55.80
12303;DHT22;6214;48.012;7.862;2022-08-14T14:11:11;30.60;56.10
12303;DHT22;6214;48.012;7.862;2022-08-14T14:13:43;30.50;55.80
12303;DHT22;6214;48.012;7.862;2022-08-14T14:16:13;30.60;56.10
12303;DHT22;6214;48.012;7.862;2022-08-14T14:18:54;30.60;56.30
12303;DHT22;6214;48.012;7.862;2022-08-14T14:21:24;30.60;56.70
12303;DHT22;6214;48.012;7.862;2022-08-14T14:23:54;30.70;56.00
12303;DHT22;6214;48.012;7.862;2022-08-14T14:26:23;30.70;56.20
12303;DHT22;6214;48.012;7.862;2022-08-14T14:28:54;30.80;56.50
12303;DHT22;6214;48.012;7.862;2022-08-14T14:31:27;30.80;56.20
12303;DHT22;6214;48.012;7.862;2022-08-14T14:34:01;30.80;56.20
12303;DHT22;6214;48.012;7.862;2022-08-14T14:36:47;30.90;57.10
12303;DHT22;6214;48.012;7.862;2022-08-14T14:39:24;31.00;56.60
12303;DHT22;6214;48.012;7.862;2022-08-14T14:41:56;30.90;55.90
12303;DHT22;6214;48.012;7.862;2022-08-14T14:44:36;30.80;55.80
12303;DHT22;6214;48.012;7.862;2022-08-14T14:47:10;30.80;55.60
12303;DHT22;6214;48.012;7.862;2022-08-14T14:49:38;30.90;56.00
12303;DHT22;6214;48.012;7.862;2022-08-14T14:52:18;30.70;55.90
12303;DHT22;6214;48.012;7.862;2022-08-14T14:54:58;30.50;56.20
12303;DHT22;6214;48.012;7.862;2022-08-14T14:57:28;30.40;56.80
12303;DHT22;6214;48.012;7.862;2022-08-14T15:00:19;30.40;56.40
12303;DHT22;6214;48.012;7.862;2022-08-14T15:02:49;30.50;56.30
12303;DHT22;6214;48.012;7.862;2022-08-14T15:05:18;30.50;56.40
12303;DHT22;6214;48.012;7.862;2022-08-14T15:07:47;30.40;56.10
12303;DHT22;6214;48.012;7.862;2022-08-14T15:10:16;30.50;56.40
12303;DHT22;6214;48.012;7.862;2022-08-14T15:12:58;30.60;56.20
12303;DHT22;6214;48.012;7.862;2022-08-14T15:15:33;30.70;56.20
12303;DHT22;6214;48.012;7.862;2022-08-14T15:18:06;30.60;55.40
12303;DHT22;6214;48.012;7.862;2022-08-14T15:20:54;30.50;55.70
12303;DHT22;6214;48.012;7.862;2022-08-14T15:23:23;30.50;55.00
12303;DHT22;6214;48.012;7.862;2022-08-14T15:25:58;30.50;55.40
12303;DHT22;6214;48.012;7.862;2022-08-14T15:28:27;30.40;56.20
12303;DHT22;6214;48.012;7.862;2022-08-14T15:31:04;30.50;57.10
12303;DHT22;6214;48.012;7.862;2022-08-14T15:33:33;30.50;57.20
12303;DHT22;6214;48.012;7.862;2022-08-14T15:36:42;30.40;56.80
12303;DHT22;6214;48.012;7.862;2022-08-14T15:39:12;30.40;57.30
12303;DHT22;6214;48.012;7.862;2022-08-14T15:41:40;30.30;57.50
12303;DHT22;6214;48.012;7.862;2022-08-14T15:44:10;30.40;58.30
12303;DHT22;6214;48.012;7.862;2022-08-14T15:46:53;30.30;58.60
12303;DHT22;6214;48.012;7.862;2022-08-14T15:49:21;30.30;58.70
12303;DHT22;6214;48.012;7.862;2022-08-14T15:51:58;30.20;58.80
12303;DHT22;6214;48.012;7.862;2022-08-14T15:54:28;30.00;59.10
12303;DHT22;6214;48.012;7.862;2022-08-14T15:57:08;29.90;59.50
12303;DHT22;6214;48.012;7.862;2022-08-14T15:59:37;29.90;59.40
12303;DHT22;6214;48.012;7.862;2022-08-14T16:02:24;29.80;60.20
12303;DHT22;6214;48.012;7.862;2022-08-14T16:04:54;29.40;62.40
12303;DHT22;6214;48.012;7.862;2022-08-14T16:07:21;29.30;63.30
12303;DHT22;6214;48.012;7.862;2022-08-14T16:09:53;29.30;64.10
12303;DHT22;6214;48.012;7.862;2022-08-14T16:12:40;29.20;65.70
12303;DHT22;6214;48.012;7.862;2022-08-14T16:15:20;29.10;66.90
12303;DHT22;6214;48.012;7.862;2022-08-14T16:17:50;28.90;67.70
12303;DHT22;6214;48.012;7.862;2022-08-14T16:20:18;29.00;68.30
12303;DHT22;6214;48.012;7.862;2022-08-14T16:23:06;29.00;69.60
12303;DHT22;6214;48.012;7.862;2022-08-14T16:25:38;29.30;69.70
12303;DHT22;6214;48.012;7.862;2022-08-14T16:28:08;29.10;70.00
12303;DHT22;6214;48.012;7.862;2022-08-14T16:30:53;29.10;68.80
12303;DHT22;6214;48.012;7.862;2022-08-14T16:33:20;29.00;69.00
12303;DHT22;6214;48.012;7.862;2022-08-14T16:36:07;29.10;68.80
12303;DHT22;6214;48.012;7.862;2022-08-14T16:38:56;29.20;69.00
12303;DHT22;6214;48.012;7.862;2022-08-14T16:41:26;29.10;67.80
12303;DHT22;6214;48.012;7.862;2022-08-14T16:46:26;28.90;67.90
12303;DHT22;6214;48.012;7.862;2022-08-14T16:48:53;28.90;68.80
12303;DHT22;6214;48.012;7.862;2022-08-14T16:51:28;29.00;68.30
12303;DHT22;6214;48.012;7.862;2022-08-14T16:54:02;29.00;68.80
12303;DHT22;6214;48.012;7.862;2022-08-14T16:56:46;29.00;68.20
12303;DHT22;6214;48.012;7.862;2022-08-14T16:59:18;29.00;68.90
12303;DHT22;6214;48.012;7.862;2022-08-14T17:01:59;29.10;69.40
12303;DHT22;6214;48.012;7.862;2022-08-14T17:04:31;29.00;69.70
12303;DHT22;6214;48.012;7.862;2022-08-14T17:07:09;29.00;69.10
12303;DHT22;6214;48.012;7.862;2022-08-14T17:09:47;28.90;69.90